createdAt,value
2023-05-22T00:01:26.672Z,19.76
2023-05-22T00:06:28.822Z,19.75
2023-05-22T00:11:31.105Z,19.96
2023-05-22T00:16:33.386Z,20.00
2023-05-22T00:21:37.721Z,19.81
2023-05-22T00:26:40.001Z,19.69
2023-05-22T00:31:42.205Z,19.63
2023-05-22T00:36:44.831Z,19.84
2023-05-22T00:41:47.505Z,19.65
2023-05-22T00:46:51.264Z,19.55
2023-05-22T00:51:53.508Z,19.63
2023-05-22T00:56:56.023Z,19.59
2023-05-22T01:01:58.810Z,19.12
2023-05-22T01:07:03.155Z,18.69
2023-05-22T01:12:36.535Z,18.74
2023-05-22T01:18:11.422Z,19.43
2023-05-22T01:23:44.767Z,19.27
2023-05-22T01:29:04.832Z,19.45
2023-05-22T01:34:12.662Z,19.83
2023-05-22T01:39:17.528Z,19.55
2023-05-22T01:44:20.901Z,18.79
2023-05-22T01:49:24.035Z,18.56
2023-05-22T01:54:42.469Z,18.75
2023-05-22T01:59:55.631Z,19.36
2023-05-22T02:05:01.482Z,19.38
2023-05-22T02:10:05.699Z,18.63
2023-05-22T02:15:09.517Z,18.64
2023-05-22T02:20:15.708Z,19.32
2023-05-22T02:25:19.093Z,19.29
2023-05-22T02:30:21.587Z,19.54
2023-05-22T02:35:26.425Z,19.28
2023-05-22T02:40:28.636Z,19.22
2023-05-22T02:45:31.437Z,19.21
2023-05-22T02:50:33.671Z,19.28
2023-05-22T02:55:36.131Z,19.69
2023-05-22T03:00:39.124Z,19.76
2023-05-22T03:05:41.482Z,19.68
2023-05-22T03:10:44.651Z,19.35
2023-05-22T03:15:47.188Z,19.63
2023-05-22T03:20:51.303Z,19.25
2023-05-22T03:25:53.557Z,18.58
2023-05-22T03:30:57.470Z,18.51
2023-05-22T03:36:03.832Z,18.56
2023-05-22T03:41:06.207Z,18.88
2023-05-22T03:46:08.567Z,18.94
2023-05-22T03:51:10.769Z,19.08
2023-05-22T03:56:13.652Z,19.47
2023-05-22T04:01:17.127Z,19.44
2023-05-22T04:06:22.422Z,19.32
2023-05-22T04:11:24.749Z,18.85
2023-05-22T04:16:29.027Z,18.81
2023-05-22T04:21:35.883Z,18.88
2023-05-22T04:26:41.007Z,18.70
2023-05-22T04:31:44.777Z,18.38
2023-05-22T04:36:48.219Z,18.61
2023-05-22T04:41:50.670Z,19.11
2023-05-22T04:46:53.953Z,19.25
2023-05-22T04:51:57.598Z,19.37
2023-05-22T04:57:00.059Z,19.66
2023-05-22T05:02:02.480Z,19.71
2023-05-22T05:07:06.306Z,19.39
2023-05-22T05:12:08.913Z,19.27
2023-05-22T05:17:11.341Z,19.26
2023-05-22T05:22:15.663Z,19.43
2023-05-22T05:27:18.276Z,19.23
2023-05-22T05:32:21.147Z,19.32
2023-05-22T05:37:35.483Z,19.41
2023-05-22T05:42:39.579Z,19.52
2023-05-22T05:47:44.461Z,19.73
2023-05-22T05:52:47.096Z,19.72
2023-05-22T05:57:52.589Z,19.60
2023-05-22T06:03:01.632Z,19.62
2023-05-22T06:08:32.630Z,19.92
2023-05-22T06:13:35.333Z,20.16
2023-05-22T06:18:37.515Z,20.29
2023-05-22T06:23:40.415Z,20.51
2023-05-22T06:28:45.304Z,20.73
2023-05-22T06:33:47.890Z,20.63
2023-05-22T06:38:50.475Z,20.23
2023-05-22T06:44:16.129Z,20.88
2023-05-22T06:49:19.399Z,21.39
2023-05-22T06:54:28.782Z,21.84
2023-05-22T06:59:32.892Z,22.16
2023-05-22T07:04:40.769Z,22.52
2023-05-22T07:09:47.645Z,22.77
2023-05-22T07:14:50.511Z,22.83
2023-05-22T07:19:53.121Z,22.85
2023-05-22T07:24:56.228Z,23.39
2023-05-22T07:30:03.432Z,24.07
2023-05-22T07:35:08.195Z,24.73
2023-05-22T07:40:11.407Z,25.06
2023-05-22T07:45:13.880Z,25.26
2023-05-22T07:50:17.205Z,25.25
2023-05-22T07:55:21.425Z,25.04
2023-05-22T08:00:25.516Z,24.73
2023-05-22T08:05:27.786Z,24.71
2023-05-22T08:10:41.706Z,24.80
2023-05-22T08:15:49.751Z,25.25
2023-05-22T08:20:54.945Z,24.95
2023-05-22T08:25:58.203Z,24.72
2023-05-22T08:31:00.385Z,25.40
2023-05-22T08:36:02.521Z,25.88
2023-05-22T08:41:06.957Z,27.18
2023-05-22T08:46:10.742Z,27.32
2023-05-22T08:51:18.885Z,27.28
2023-05-22T08:56:22.429Z,27.13
2023-05-22T09:01:25.281Z,26.37
2023-05-22T09:06:29.379Z,25.85
2023-05-22T09:11:31.729Z,28.16
2023-05-22T09:16:34.251Z,29.67
2023-05-22T09:21:37.509Z,29.18
2023-05-22T09:26:40.575Z,28.88
2023-05-22T09:31:44.935Z,28.02
2023-05-22T09:36:51.505Z,27.17
2023-05-22T09:41:53.671Z,27.05
2023-05-22T09:46:56.012Z,26.72
2023-05-22T09:51:59.392Z,28.65
2023-05-22T09:57:05.044Z,30.78
2023-05-22T10:02:09.150Z,30.19
2023-05-22T10:07:14.259Z,30.09
2023-05-22T10:12:20.972Z,28.66
2023-05-22T10:17:25.079Z,29.72
2023-05-22T10:22:29.501Z,29.90
2023-05-22T10:27:32.106Z,30.79
2023-05-22T10:32:48.056Z,32.01
2023-05-22T10:38:03.654Z,31.96
2023-05-22T10:43:06.009Z,32.73
2023-05-22T10:48:12.009Z,32.40
2023-05-22T10:53:28.246Z,32.92
2023-05-22T10:58:34.611Z,32.98
2023-05-22T11:04:00.536Z,33.44
2023-05-22T11:09:20.645Z,33.82
2023-05-22T11:14:26.001Z,33.63
2023-05-22T11:19:28.332Z,33.40
2023-05-22T11:24:34.648Z,33.52
2023-05-22T11:29:39.101Z,34.36
2023-05-22T11:34:43.267Z,34.46
2023-05-22T11:40:01.052Z,34.65
2023-05-22T11:45:04.904Z,34.43
2023-05-22T11:50:10.940Z,34.23
2023-05-22T11:55:13.167Z,34.34
2023-05-22T12:00:16.395Z,34.25
2023-05-22T12:05:21.994Z,34.49
2023-05-22T12:10:26.274Z,34.74
2023-05-22T12:15:28.633Z,34.49
2023-05-22T12:20:31.450Z,34.54
2023-05-22T12:25:37.409Z,34.44
2023-05-22T12:30:42.243Z,35.06
2023-05-22T12:35:44.553Z,34.50
2023-05-22T12:40:47.240Z,34.99
2023-05-22T12:45:50.001Z,34.78
2023-05-22T12:50:52.283Z,34.85
2023-05-22T12:55:54.388Z,34.92
2023-05-22T13:00:56.705Z,34.64
2023-05-22T13:05:58.906Z,35.15
2023-05-22T13:11:01.294Z,34.48
2023-05-22T13:16:03.497Z,34.13
2023-05-22T13:21:06.451Z,33.89
2023-05-22T13:26:08.805Z,34.17
2023-05-22T13:31:11.018Z,33.42
2023-05-22T13:36:13.530Z,33.31
2023-05-22T13:41:16.159Z,32.88
2023-05-22T13:46:20.660Z,30.96
2023-05-22T13:51:22.879Z,30.61
2023-05-22T13:56:24.989Z,31.65
2023-05-22T14:01:27.728Z,31.37
2023-05-22T14:06:30.030Z,31.74
2023-05-22T14:11:32.228Z,31.85
2023-05-22T14:16:34.500Z,31.61
2023-05-22T14:21:36.723Z,31.25
2023-05-22T14:26:39.418Z,30.57
2023-05-22T14:31:51.792Z,31.17
2023-05-22T14:36:56.656Z,31.68
2023-05-22T14:41:58.822Z,30.12
2023-05-22T14:47:01.101Z,29.07
2023-05-22T14:52:03.273Z,28.82
2023-05-22T14:57:05.762Z,28.00
2023-05-22T15:02:08.107Z,27.62
2023-05-22T15:07:10.375Z,27.46
2023-05-22T15:12:15.664Z,27.41
2023-05-22T15:17:18.261Z,27.39
2023-05-22T15:22:20.543Z,27.27
2023-05-22T15:27:22.839Z,27.04
2023-05-22T15:32:25.018Z,26.57
2023-05-22T15:37:29.736Z,25.42
2023-05-22T15:42:33.869Z,25.42
2023-05-22T15:47:36.038Z,25.81
2023-05-22T15:52:38.549Z,25.87
2023-05-22T15:57:40.830Z,26.06
2023-05-22T16:02:43.509Z,26.21
2023-05-22T16:07:46.216Z,26.52
2023-05-22T16:12:48.563Z,26.87
2023-05-22T16:17:50.897Z,26.38
2023-05-22T16:22:53.125Z,26.46
2023-05-22T16:27:55.420Z,26.69
2023-05-22T16:32:57.840Z,27.03
2023-05-22T16:38:00.006Z,26.65
2023-05-22T16:43:02.369Z,26.27
2023-05-22T16:48:04.697Z,26.11
2023-05-22T16:53:06.934Z,26.26
2023-05-22T16:58:13.013Z,26.13
2023-05-22T17:03:15.557Z,26.14
2023-05-22T17:08:18.264Z,26.02
2023-05-22T17:13:21.210Z,26.36
2023-05-22T17:18:23.514Z,26.41
2023-05-22T17:23:25.994Z,26.30
2023-05-22T17:28:28.128Z,26.21
2023-05-22T17:33:30.309Z,26.02
2023-05-22T17:38:32.458Z,25.96
2023-05-22T17:43:35.485Z,25.85
2023-05-22T17:48:37.613Z,25.34
2023-05-22T17:53:39.828Z,25.20
2023-05-22T17:58:41.934Z,24.91
2023-05-22T18:03:46.303Z,24.86
2023-05-22T18:08:48.973Z,24.82
2023-05-22T18:13:51.112Z,24.39
2023-05-22T18:18:53.390Z,24.25
2023-05-22T18:23:56.062Z,24.33
2023-05-22T18:28:58.242Z,24.35
2023-05-22T18:34:00.445Z,24.31
2023-05-22T18:39:02.667Z,24.22
2023-05-22T18:44:04.840Z,24.06
2023-05-22T18:49:07.077Z,24.07
2023-05-22T18:54:09.298Z,24.04
2023-05-22T18:59:11.500Z,24.02
2023-05-22T19:04:13.709Z,23.98
2023-05-22T19:09:19.065Z,23.93
2023-05-22T19:14:21.385Z,23.93
2023-05-22T19:19:23.526Z,23.48
2023-05-22T19:24:27.708Z,23.37
2023-05-22T19:29:29.901Z,23.23
2023-05-22T19:34:32.207Z,23.24
2023-05-22T19:39:34.432Z,22.68
2023-05-22T19:44:36.647Z,22.67
2023-05-22T19:49:38.853Z,22.89
2023-05-22T19:54:40.999Z,23.23
2023-05-22T19:59:43.304Z,23.22
2023-05-22T20:04:48.625Z,23.27
2023-05-22T20:09:51.572Z,23.16
2023-05-22T20:14:54.353Z,23.22
2023-05-22T20:19:58.913Z,23.13
2023-05-22T20:25:01.627Z,23.09
2023-05-22T20:30:04.697Z,23.08
2023-05-22T20:35:11.025Z,23.18
2023-05-22T20:40:14.586Z,23.16
2023-05-22T20:45:17.658Z,23.09
2023-05-22T20:50:20.035Z,22.94
2023-05-22T20:55:22.309Z,22.98
2023-05-22T21:00:24.485Z,22.99
2023-05-22T21:05:26.674Z,23.04
2023-05-22T21:10:28.963Z,23.00
2023-05-22T21:15:31.103Z,22.83
2023-05-22T21:20:33.204Z,22.80
2023-05-22T21:25:35.377Z,22.77
2023-05-22T21:30:37.703Z,22.45
2023-05-22T21:35:39.995Z,22.58
2023-05-22T21:40:43.063Z,22.75
2023-05-22T21:45:45.355Z,22.70
2023-05-22T21:50:47.957Z,22.77
2023-05-22T21:55:50.338Z,22.72
2023-05-22T22:00:54.705Z,22.64
2023-05-22T22:05:56.826Z,22.66
2023-05-22T22:10:59.745Z,22.58
2023-05-22T22:16:02.019Z,22.46
2023-05-22T22:21:04.782Z,22.40
2023-05-22T22:26:07.582Z,22.50
2023-05-22T22:31:10.027Z,22.51
2023-05-22T22:36:12.166Z,22.41
2023-05-22T22:41:14.317Z,22.40
2023-05-22T22:46:16.929Z,22.33
2023-05-22T22:51:20.209Z,21.98
2023-05-22T22:56:28.257Z,21.30
2023-05-22T23:01:30.556Z,20.99
2023-05-22T23:06:33.103Z,20.86
2023-05-22T23:11:37.845Z,21.19
2023-05-22T23:16:43.531Z,20.86
2023-05-22T23:21:46.215Z,20.67
2023-05-22T23:26:48.703Z,20.80
2023-05-22T23:31:50.957Z,20.36
2023-05-22T23:36:53.151Z,20.68
2023-05-22T23:41:55.361Z,20.96
2023-05-22T23:46:57.929Z,20.83
2023-05-22T23:52:00.352Z,20.90
2023-05-22T23:57:02.488Z,21.32
